Terminal Aerodrome Forecast
Issued by NWS

Home | Current Version | Previous Version | Text Only | Print | Product List | Glossary On
Versions: 1 2 3 4 5 6 7 8 9 10 11 12 13 14
000
FTUS44 KLZK 300500
TAFLIT
TAF
KLIT 300539Z 3006/3106 16003KT P6SM SCT120 OVC250
     FM301300 18005KT P6SM SCT080 OVC120
     FM301800 24006KT P6SM VCSH OVC050 PROB30 3018/3024 5SM -RA BR
      OVC030
     FM310000 VRB03KT 5SM -SHRA BR OVC040=

USA.gov is the U.S. government's official web portal to all federal, state and local government web resources and services.